createdAt,value
2019-06-15T00:00:26.996Z,18.97
2019-06-15T00:02:54.956Z,18.98
2019-06-15T00:05:22.641Z,18.97
2019-06-15T00:07:50.186Z,18.98
2019-06-15T00:10:17.844Z,18.97
2019-06-15T00:12:45.798Z,18.97
2019-06-15T00:15:13.573Z,18.90
2019-06-15T00:17:41.543Z,18.88
2019-06-15T00:20:09.274Z,18.87
2019-06-15T00:22:37.479Z,18.89
2019-06-15T00:25:05.142Z,18.89
2019-06-15T00:27:32.753Z,18.86
2019-06-15T00:30:01.052Z,18.82
2019-06-15T00:32:29.052Z,18.82
2019-06-15T00:34:56.805Z,18.76
2019-06-15T00:37:24.444Z,18.76
2019-06-15T00:39:52.129Z,18.68
2019-06-15T00:42:20.207Z,18.62
2019-06-15T00:44:47.963Z,18.59
2019-06-15T00:47:15.540Z,18.59
2019-06-15T00:49:43.303Z,18.62
2019-06-15T00:52:11.255Z,18.66
2019-06-15T00:54:50.004Z,18.70
2019-06-15T00:57:08.123Z,18.70
2019-06-15T00:59:35.879Z,18.60
2019-06-15T01:02:03.863Z,18.60
2019-06-15T01:04:31.533Z,18.56
2019-06-15T01:06:59.177Z,18.55
2019-06-15T01:09:26.947Z,18.54
2019-06-15T01:11:54.905Z,18.54
2019-06-15T01:14:22.575Z,18.56
2019-06-15T01:16:50.697Z,18.58
2019-06-15T01:19:18.310Z,18.62
2019-06-15T01:21:46.393Z,18.62
2019-06-15T01:24:14.045Z,18.61
2019-06-15T01:26:41.708Z,18.57
2019-06-15T01:29:09.784Z,18.57
2019-06-15T01:31:37.288Z,18.57
2019-06-15T01:34:04.988Z,18.57
2019-06-15T01:36:33.058Z,18.59
2019-06-15T01:39:00.753Z,18.59
2019-06-15T01:41:28.422Z,18.57
2019-06-15T01:43:56.148Z,18.53
2019-06-15T01:46:24.222Z,18.50
2019-06-15T01:48:52.004Z,18.46
2019-06-15T01:51:19.657Z,18.43
2019-06-15T01:53:47.420Z,18.39
2019-06-15T01:56:15.506Z,18.33
2019-06-15T01:58:43.150Z,18.33
2019-06-15T02:01:10.829Z,18.27
2019-06-15T02:03:38.475Z,18.17
2019-06-15T02:06:06.544Z,18.17
2019-06-15T02:08:34.201Z,18.14
2019-06-15T02:11:01.968Z,18.07
2019-06-15T02:13:29.728Z,18.07
2019-06-15T02:15:57.807Z,18.09
2019-06-15T02:18:25.562Z,18.10
2019-06-15T02:20:53.128Z,18.09
2019-06-15T02:23:20.887Z,18.06
2019-06-15T02:25:48.855Z,17.99
2019-06-15T02:28:16.530Z,17.99
2019-06-15T02:30:44.291Z,17.92
2019-06-15T02:33:12.286Z,17.81
2019-06-15T02:35:39.918Z,17.81
2019-06-15T02:38:07.578Z,17.76
2019-06-15T02:40:35.360Z,17.73
2019-06-15T02:43:04.391Z,17.68
2019-06-15T02:45:32.008Z,17.68
2019-06-15T02:47:59.714Z,17.67
2019-06-15T02:50:27.319Z,17.67
2019-06-15T02:52:55.518Z,17.66
2019-06-15T02:55:23.154Z,17.66
2019-06-15T02:57:50.818Z,17.64
2019-06-15T03:00:18.803Z,17.61
2019-06-15T03:02:46.558Z,17.60
2019-06-15T03:05:14.135Z,17.58
2019-06-15T03:07:42.186Z,17.55
2019-06-15T03:10:09.953Z,17.53
2019-06-15T03:12:38.126Z,17.51
2019-06-15T03:15:06.208Z,17.51
2019-06-15T03:17:33.966Z,17.50
2019-06-15T03:20:01.720Z,17.47
2019-06-15T03:22:29.411Z,17.46
2019-06-15T03:24:57.475Z,17.46
2019-06-15T03:27:25.213Z,17.44
2019-06-15T03:29:53.194Z,17.44
2019-06-15T03:32:20.859Z,17.42
2019-06-15T03:34:48.981Z,17.40
2019-06-15T03:37:16.579Z,17.39
2019-06-15T03:39:44.110Z,17.42
2019-06-15T03:42:11.750Z,17.44
2019-06-15T03:44:39.483Z,17.45
2019-06-15T03:47:07.080Z,17.45
2019-06-15T03:49:34.743Z,17.48
2019-06-15T03:52:02.764Z,17.48
2019-06-15T03:54:30.472Z,17.50
2019-06-15T03:56:58.103Z,17.58
2019-06-15T03:59:26.184Z,17.58
2019-06-15T04:01:53.708Z,17.62
2019-06-15T04:04:21.318Z,17.69
2019-06-15T04:06:49.305Z,17.71
2019-06-15T04:09:17.333Z,17.68
2019-06-15T04:11:44.916Z,17.68
2019-06-15T04:14:12.599Z,17.69
2019-06-15T04:16:40.610Z,17.66
2019-06-15T04:19:08.752Z,17.66
2019-06-15T04:21:36.350Z,17.69
2019-06-15T04:24:03.999Z,17.73
2019-06-15T04:26:36.071Z,17.83
2019-06-15T04:29:01.368Z,17.90
2019-06-15T04:31:29.143Z,17.90
2019-06-15T04:33:56.804Z,17.94
2019-06-15T04:36:24.433Z,17.94
2019-06-15T04:38:52.094Z,18.01
2019-06-15T04:41:19.687Z,18.01
2019-06-15T04:43:47.385Z,18.05
2019-06-15T04:46:15.460Z,18.08
2019-06-15T04:48:43.141Z,18.15
2019-06-15T04:51:10.743Z,18.35
2019-06-15T04:53:38.444Z,18.35
2019-06-15T04:56:06.578Z,18.56
2019-06-15T04:58:34.336Z,18.56
2019-06-15T05:01:02.297Z,18.69
2019-06-15T05:03:29.925Z,18.74
2019-06-15T05:05:58.017Z,18.76
2019-06-15T05:08:25.659Z,18.77
2019-06-15T05:10:59.471Z,18.77
2019-06-15T05:13:22.796Z,18.80
2019-06-15T05:15:50.893Z,18.82
2019-06-15T05:18:18.514Z,18.82
2019-06-15T05:20:46.191Z,18.83
2019-06-15T05:23:13.803Z,18.83
2019-06-15T05:25:42.517Z,18.87
2019-06-15T05:28:10.577Z,18.94
2019-06-15T05:30:38.237Z,19.05
2019-06-15T05:33:05.764Z,19.05
2019-06-15T05:35:33.990Z,19.15
2019-06-15T05:38:01.641Z,19.30
2019-06-15T05:40:29.325Z,19.43
2019-06-15T05:42:56.791Z,19.51
2019-06-15T05:45:24.854Z,19.51
2019-06-15T05:47:52.517Z,19.55
2019-06-15T05:50:20.212Z,19.59
2019-06-15T05:52:48.293Z,19.65
2019-06-15T05:55:15.911Z,19.68
2019-06-15T05:57:43.552Z,19.73
2019-06-15T06:00:11.767Z,19.81
2019-06-15T06:02:39.414Z,19.88
2019-06-15T06:05:06.994Z,19.89
2019-06-15T06:07:34.966Z,19.92
2019-06-15T06:10:02.528Z,19.91
2019-06-15T06:12:30.118Z,19.92
2019-06-15T06:14:58.097Z,19.92
2019-06-15T06:17:26.029Z,19.95
2019-06-15T06:19:53.492Z,19.95
2019-06-15T06:22:21.511Z,20.06
2019-06-15T06:24:49.040Z,20.15
2019-06-15T06:27:16.600Z,20.15
2019-06-15T06:29:44.440Z,20.38
2019-06-15T06:32:12.020Z,20.38
2019-06-15T06:34:39.570Z,20.49
2019-06-15T06:37:07.535Z,20.66
2019-06-15T06:39:35.144Z,20.74
2019-06-15T06:42:02.871Z,20.81
2019-06-15T06:44:30.882Z,20.81
2019-06-15T06:46:58.383Z,20.83
2019-06-15T06:49:25.986Z,20.80
2019-06-15T06:51:53.891Z,20.74
2019-06-15T06:54:21.799Z,20.74
2019-06-15T06:56:49.403Z,20.67
2019-06-15T06:59:17.356Z,20.57
2019-06-15T07:01:45.278Z,20.50
2019-06-15T07:04:12.863Z,20.47
2019-06-15T07:06:40.797Z,20.40
2019-06-15T07:09:08.415Z,20.33
2019-06-15T07:11:35.982Z,20.37
2019-06-15T07:14:04.006Z,20.37
2019-06-15T07:16:31.576Z,20.45
2019-06-15T07:18:59.197Z,20.47
2019-06-15T07:21:27.116Z,20.51
2019-06-15T07:23:55.052Z,20.42
2019-06-15T07:26:22.648Z,20.42
2019-06-15T07:28:50.545Z,20.29
2019-06-15T07:31:18.107Z,20.03
2019-06-15T07:33:45.696Z,20.03
2019-06-15T07:36:13.830Z,19.88
2019-06-15T07:38:41.397Z,19.79
2019-06-15T07:41:09.730Z,19.71
2019-06-15T07:43:37.747Z,19.54
2019-06-15T07:46:05.402Z,19.54
2019-06-15T07:48:33.086Z,19.46
2019-06-15T07:51:01.180Z,19.31
2019-06-15T07:53:29.606Z,19.31
2019-06-15T07:55:57.344Z,19.30
2019-06-15T07:58:25.434Z,19.30
2019-06-15T08:00:53.048Z,19.30
2019-06-15T08:03:20.636Z,19.33
2019-06-15T08:05:48.612Z,19.46
2019-06-15T08:08:16.211Z,19.62
2019-06-15T08:10:43.799Z,19.80
2019-06-15T08:13:11.839Z,19.90
2019-06-15T08:15:39.312Z,19.97
2019-06-15T08:18:09.716Z,20.07
2019-06-15T08:20:36.552Z,20.06
2019-06-15T08:23:04.192Z,20.02
2019-06-15T08:25:31.750Z,20.04
2019-06-15T08:27:59.763Z,20.04
2019-06-15T08:30:27.417Z,20.04
2019-06-15T08:32:55.031Z,20.01
2019-06-15T08:35:22.689Z,20.05
2019-06-15T08:37:50.262Z,20.05
2019-06-15T08:40:17.848Z,20.42
2019-06-15T08:42:45.392Z,20.68
2019-06-15T08:45:13.297Z,20.68
2019-06-15T08:47:40.874Z,21.33
2019-06-15T08:50:08.477Z,21.64
2019-06-15T08:52:36.401Z,21.96
2019-06-15T08:55:03.969Z,22.20
2019-06-15T08:57:31.550Z,22.30
2019-06-15T08:59:59.614Z,22.41
2019-06-15T09:02:27.145Z,22.41
2019-06-15T09:04:54.766Z,22.61
2019-06-15T09:07:22.754Z,22.99
2019-06-15T09:09:50.329Z,23.02
2019-06-15T09:12:17.949Z,23.15
2019-06-15T09:14:45.902Z,23.15
2019-06-15T09:17:13.925Z,23.32
2019-06-15T09:19:41.524Z,23.32
2019-06-15T09:22:09.572Z,23.54
2019-06-15T09:24:37.136Z,23.68
2019-06-15T09:27:04.752Z,23.64
2019-06-15T09:29:32.975Z,23.51
2019-06-15T09:32:00.543Z,23.19
2019-06-15T09:34:28.104Z,22.85
2019-06-15T09:36:56.159Z,22.55
2019-06-15T09:39:23.736Z,22.29
2019-06-15T09:41:51.367Z,22.08
2019-06-15T09:44:19.292Z,21.88
2019-06-15T09:46:47.181Z,21.71
2019-06-15T09:49:15.169Z,21.11
2019-06-15T09:51:43.130Z,20.60
2019-06-15T09:54:10.737Z,20.60
2019-06-15T09:56:38.788Z,19.86
2019-06-15T09:59:06.699Z,19.86
2019-06-15T10:01:34.291Z,19.54
2019-06-15T10:04:01.843Z,19.05
2019-06-15T10:06:29.770Z,19.05
2019-06-15T10:08:57.366Z,19.02
2019-06-15T10:11:24.996Z,19.02
2019-06-15T10:13:52.965Z,19.38
2019-06-15T10:16:20.538Z,19.94
2019-06-15T10:18:48.188Z,20.77
2019-06-15T10:21:16.062Z,20.77
2019-06-15T10:23:43.701Z,21.63
2019-06-15T10:26:11.597Z,22.14
2019-06-15T10:28:39.597Z,22.14
2019-06-15T10:31:07.168Z,22.17
2019-06-15T10:33:34.769Z,22.13
2019-06-15T10:36:02.718Z,21.79
2019-06-15T10:38:30.280Z,21.79
2019-06-15T10:40:57.902Z,21.75
2019-06-15T10:43:25.857Z,21.81
2019-06-15T10:45:53.863Z,21.81
2019-06-15T10:48:21.448Z,21.87
2019-06-15T10:50:49.494Z,21.87
2019-06-15T10:53:17.045Z,21.78
2019-06-15T10:55:44.701Z,21.75
2019-06-15T10:58:12.631Z,21.66
2019-06-15T11:00:40.293Z,21.48
2019-06-15T11:03:07.964Z,21.22
2019-06-15T11:05:35.897Z,21.22
2019-06-15T11:08:03.535Z,21.20
2019-06-15T11:10:31.076Z,21.18
2019-06-15T11:12:59.112Z,21.95
2019-06-15T11:15:26.745Z,22.30
2019-06-15T11:17:54.306Z,22.45
2019-06-15T11:20:22.296Z,22.45
2019-06-15T11:22:49.934Z,22.42
2019-06-15T11:25:17.689Z,22.32
2019-06-15T11:27:45.654Z,22.25
2019-06-15T11:30:14.575Z,22.25
2019-06-15T11:32:42.416Z,22.34
2019-06-15T11:35:10.413Z,23.21
2019-06-15T11:37:38.033Z,23.21
2019-06-15T11:40:05.742Z,23.85
2019-06-15T11:42:33.322Z,24.38
2019-06-15T11:45:00.983Z,24.99
2019-06-15T11:47:28.946Z,25.38
2019-06-15T11:49:56.529Z,26.15
2019-06-15T11:52:24.150Z,26.15
2019-06-15T11:54:52.126Z,26.19
2019-06-15T11:57:22.043Z,26.25
2019-06-15T11:59:49.595Z,25.82
2019-06-15T12:02:17.656Z,25.82
2019-06-15T12:04:57.637Z,26.21
2019-06-15T12:07:14.516Z,26.21
2019-06-15T12:09:42.505Z,26.09
2019-06-15T12:12:10.078Z,24.75
2019-06-15T12:14:37.638Z,24.75
2019-06-15T12:17:05.682Z,24.28
2019-06-15T12:19:33.370Z,25.19
2019-06-15T12:22:00.937Z,25.19
2019-06-15T12:24:28.965Z,26.05
2019-06-15T12:26:56.554Z,26.70
2019-06-15T12:29:24.187Z,26.70
2019-06-15T12:31:52.057Z,27.44
2019-06-15T12:34:21.210Z,27.81
2019-06-15T12:36:48.846Z,27.27
2019-06-15T12:39:16.875Z,26.63
2019-06-15T12:41:44.493Z,25.45
2019-06-15T12:44:12.113Z,25.45
2019-06-15T12:46:40.040Z,25.67
2019-06-15T12:49:07.743Z,25.67
2019-06-15T12:51:35.303Z,26.70
2019-06-15T12:54:03.279Z,28.76
2019-06-15T12:56:30.900Z,28.76
2019-06-15T12:58:58.501Z,29.55
2019-06-15T13:01:26.396Z,29.24
2019-06-15T13:03:53.942Z,28.23
2019-06-15T13:06:21.573Z,27.84
2019-06-15T13:08:49.607Z,27.55
2019-06-15T13:11:17.206Z,27.55
2019-06-15T13:13:44.793Z,27.30
2019-06-15T13:16:12.831Z,26.33
2019-06-15T13:18:40.425Z,26.33
2019-06-15T13:21:08.215Z,25.91
2019-06-15T13:23:36.323Z,25.52
2019-06-15T13:26:03.904Z,25.45
2019-06-15T13:28:31.526Z,25.44
2019-06-15T13:30:59.534Z,25.49
2019-06-15T13:33:30.080Z,25.73
2019-06-15T13:35:57.654Z,26.00
2019-06-15T13:38:25.652Z,26.20
2019-06-15T13:40:53.271Z,26.85
2019-06-15T13:43:20.855Z,27.06
2019-06-15T13:45:48.869Z,28.00
2019-06-15T13:48:16.471Z,29.26
2019-06-15T13:50:44.040Z,30.06
2019-06-15T13:53:12.014Z,30.30
2019-06-15T13:55:39.629Z,30.49
2019-06-15T13:58:07.249Z,31.48
2019-06-15T14:00:35.193Z,31.48
2019-06-15T14:03:03.147Z,30.62
2019-06-15T14:05:33.688Z,30.62
2019-06-15T14:08:01.633Z,29.48
2019-06-15T14:10:29.274Z,28.79
2019-06-15T14:12:56.809Z,29.29
2019-06-15T14:15:24.906Z,29.89
2019-06-15T14:17:52.845Z,30.72
2019-06-15T14:20:20.562Z,30.72
2019-06-15T14:22:48.418Z,31.38
2019-06-15T14:25:15.954Z,31.77
2019-06-15T14:27:43.597Z,32.20
2019-06-15T14:30:11.673Z,32.20
2019-06-15T14:32:39.209Z,32.48
2019-06-15T14:35:06.723Z,32.48
2019-06-15T14:37:34.625Z,32.69
2019-06-15T14:40:02.178Z,33.36
2019-06-15T14:42:32.504Z,33.36
2019-06-15T14:45:00.032Z,33.43
2019-06-15T14:47:27.629Z,33.36
2019-06-15T14:49:56.006Z,33.19
2019-06-15T14:52:23.891Z,32.92
2019-06-15T14:54:51.423Z,33.27
2019-06-15T14:57:19.546Z,33.27
2019-06-15T14:59:59.667Z,33.72
2019-06-15T15:02:17.555Z,34.79
2019-06-15T15:04:45.666Z,34.79
2019-06-15T15:07:13.286Z,34.97
2019-06-15T15:09:40.883Z,34.96
2019-06-15T15:12:09.155Z,34.77
2019-06-15T15:14:36.662Z,34.77
2019-06-15T15:17:06.396Z,34.89
2019-06-15T15:19:35.942Z,34.99
2019-06-15T15:22:03.133Z,35.39
2019-06-15T15:24:30.692Z,35.98
2019-06-15T15:26:58.785Z,35.98
2019-06-15T15:29:27.051Z,35.67
2019-06-15T15:31:57.206Z,35.50
2019-06-15T15:34:26.094Z,35.20
2019-06-15T15:36:53.673Z,35.07
2019-06-15T15:39:21.230Z,34.56
2019-06-15T15:41:49.229Z,34.46
2019-06-15T15:44:16.819Z,34.46
2019-06-15T15:46:46.240Z,34.57
2019-06-15T15:49:16.095Z,33.93
2019-06-15T15:51:43.381Z,32.33
2019-06-15T15:54:11.391Z,30.94
2019-06-15T15:56:39.259Z,30.71
2019-06-15T15:59:07.005Z,30.71
2019-06-15T16:01:36.881Z,31.40
2019-06-15T16:04:06.270Z,31.41
2019-06-15T16:06:33.590Z,31.40
2019-06-15T16:09:01.166Z,31.50
2019-06-15T16:11:31.291Z,29.86
2019-06-15T16:13:58.536Z,29.19
2019-06-15T16:16:26.643Z,29.19
2019-06-15T16:18:56.147Z,28.86
2019-06-15T16:21:25.902Z,28.30
2019-06-15T16:23:55.711Z,26.78
2019-06-15T16:26:22.740Z,26.06
2019-06-15T16:28:50.687Z,25.59
2019-06-15T16:31:24.949Z,25.59
2019-06-15T16:33:47.758Z,25.41
2019-06-15T16:36:15.437Z,25.25
2019-06-15T16:38:43.008Z,25.18
2019-06-15T16:41:10.954Z,25.24
2019-06-15T16:43:38.510Z,25.65
2019-06-15T16:46:06.449Z,25.65
2019-06-15T16:48:36.386Z,26.82
2019-06-15T16:51:03.502Z,26.82
2019-06-15T16:53:31.112Z,26.30
2019-06-15T16:56:00.647Z,25.77
2019-06-15T16:58:28.254Z,25.27
2019-06-15T17:00:57.041Z,25.27
2019-06-15T17:03:29.096Z,24.67
2019-06-15T17:05:57.187Z,24.41
2019-06-15T17:08:23.979Z,24.41
2019-06-15T17:10:51.822Z,24.13
2019-06-15T17:13:19.451Z,23.92
2019-06-15T17:15:47.079Z,23.74
2019-06-15T17:18:15.058Z,23.74
2019-06-15T17:20:42.551Z,23.59
2019-06-15T17:23:10.189Z,23.42
2019-06-15T17:25:38.176Z,23.42
2019-06-15T17:28:05.688Z,23.33
2019-06-15T17:30:33.252Z,23.28
2019-06-15T17:33:04.752Z,23.28
2019-06-15T17:35:30.478Z,23.13
2019-06-15T17:37:58.063Z,23.13
2019-06-15T17:40:26.823Z,23.06
2019-06-15T17:42:54.412Z,23.06
2019-06-15T17:45:22.059Z,23.04
2019-06-15T17:47:50.009Z,23.02
2019-06-15T17:50:17.539Z,23.00
2019-06-15T17:52:46.789Z,22.95
2019-06-15T17:55:17.710Z,22.88
2019-06-15T17:57:46.499Z,22.80
2019-06-15T18:00:16.410Z,22.73
2019-06-15T18:02:43.252Z,22.61
2019-06-15T18:05:10.841Z,22.53
2019-06-15T18:07:38.452Z,22.53
2019-06-15T18:10:07.199Z,22.40
2019-06-15T18:12:34.963Z,22.34
2019-06-15T18:15:02.562Z,22.34
2019-06-15T18:17:30.556Z,22.25
2019-06-15T18:19:58.146Z,22.25
2019-06-15T18:22:25.724Z,22.19
2019-06-15T18:24:53.930Z,22.19
2019-06-15T18:27:21.459Z,22.19
2019-06-15T18:29:49.087Z,22.18
2019-06-15T18:32:17.246Z,22.18
2019-06-15T18:34:46.520Z,22.18
2019-06-15T18:37:14.221Z,22.18
2019-06-15T18:39:42.164Z,22.20
2019-06-15T18:42:09.801Z,22.20
2019-06-15T18:44:37.454Z,22.20
2019-06-15T18:47:07.141Z,22.20
2019-06-15T18:49:36.270Z,22.19
2019-06-15T18:52:06.063Z,22.18
2019-06-15T18:54:33.061Z,22.17
2019-06-15T18:57:00.607Z,22.13
2019-06-15T18:59:28.633Z,22.09
2019-06-15T19:01:56.281Z,22.05
2019-06-15T19:04:30.090Z,22.00
2019-06-15T19:06:55.963Z,21.94
2019-06-15T19:09:22.999Z,21.83
2019-06-15T19:11:50.631Z,21.76
2019-06-15T19:14:18.460Z,21.76
2019-06-15T19:16:47.188Z,21.63
2019-06-15T19:19:17.054Z,21.63
2019-06-15T19:21:46.188Z,21.56
2019-06-15T19:24:16.571Z,21.43
2019-06-15T19:26:43.040Z,21.43
2019-06-15T19:29:11.022Z,21.30
2019-06-15T19:31:38.579Z,21.21
2019-06-15T19:34:06.801Z,21.21
2019-06-15T19:36:36.681Z,20.99
2019-06-15T19:39:06.241Z,20.99
2019-06-15T19:41:33.823Z,20.75
2019-06-15T19:44:01.702Z,20.75
2019-06-15T19:46:29.315Z,20.64
2019-06-15T19:48:57.060Z,20.42
2019-06-15T19:51:26.418Z,20.32
2019-06-15T19:53:56.576Z,20.32
2019-06-15T19:56:25.925Z,20.23
2019-06-15T19:58:53.457Z,20.06
2019-06-15T20:01:21.086Z,20.06
2019-06-15T20:03:48.635Z,19.99
2019-06-15T20:06:17.032Z,19.90
2019-06-15T20:08:46.770Z,19.77
2019-06-15T20:11:13.835Z,19.77
2019-06-15T20:13:41.884Z,19.72
2019-06-15T20:16:09.441Z,19.61
2019-06-15T20:18:37.568Z,19.61
2019-06-15T20:21:07.218Z,19.56
2019-06-15T20:23:37.241Z,19.51
2019-06-15T20:26:06.423Z,19.37
2019-06-15T20:28:33.919Z,19.37
2019-06-15T20:31:01.599Z,19.24
2019-06-15T20:33:29.173Z,19.24
2019-06-15T20:35:58.543Z,19.18
2019-06-15T20:38:26.932Z,19.10
2019-06-15T20:40:56.569Z,19.10
2019-06-15T20:43:27.080Z,19.07
2019-06-15T20:45:56.038Z,19.03
2019-06-15T20:48:22.876Z,18.96
2019-06-15T20:50:50.740Z,18.80
2019-06-15T20:53:18.293Z,18.80
2019-06-15T20:55:46.576Z,18.73
2019-06-15T20:58:17.079Z,18.62
2019-06-15T21:00:44.220Z,18.54
2019-06-15T21:03:11.841Z,18.34
2019-06-15T21:05:42.108Z,18.26
2019-06-15T21:08:08.937Z,18.26
2019-06-15T21:10:37.283Z,18.15
2019-06-15T21:13:05.396Z,18.06
2019-06-15T21:15:33.033Z,17.98
2019-06-15T21:18:00.600Z,17.92
2019-06-15T21:20:28.713Z,17.86
2019-06-15T21:22:57.175Z,17.76
2019-06-15T21:25:26.472Z,17.73
2019-06-15T21:27:56.798Z,17.67
2019-06-15T21:30:26.856Z,17.60
2019-06-15T21:32:55.835Z,17.60
2019-06-15T21:35:23.544Z,17.54
2019-06-15T21:37:51.313Z,17.47
2019-06-15T21:40:18.978Z,17.43
2019-06-15T21:42:47.130Z,17.40
2019-06-15T21:45:14.711Z,17.36
2019-06-15T21:47:42.429Z,17.30
2019-06-15T21:50:10.854Z,17.30
2019-06-15T21:52:38.538Z,17.29
2019-06-15T21:55:06.951Z,17.25
2019-06-15T21:57:36.517Z,17.20
2019-06-15T22:00:07.411Z,17.14
2019-06-15T22:02:36.254Z,17.09
2019-06-15T22:05:03.310Z,17.04
2019-06-15T22:07:31.443Z,17.01
2019-06-15T22:09:59.134Z,17.00
2019-06-15T22:12:27.172Z,17.01
2019-06-15T22:14:56.909Z,17.07
2019-06-15T22:17:26.131Z,17.13
2019-06-15T22:19:54.125Z,17.27
2019-06-15T22:22:21.731Z,17.27
2019-06-15T22:24:49.462Z,17.31
2019-06-15T22:27:17.463Z,17.35
2019-06-15T22:29:47.247Z,17.35
2019-06-15T22:32:16.478Z,17.35
2019-06-15T22:34:43.984Z,17.36
2019-06-15T22:37:11.668Z,17.36
2019-06-15T22:39:39.208Z,17.36
2019-06-15T22:42:07.203Z,17.38
2019-06-15T22:44:37.024Z,17.38
2019-06-15T22:47:06.744Z,17.49
2019-06-15T22:49:35.959Z,17.54
2019-06-15T22:52:03.310Z,17.57
2019-06-15T22:54:30.943Z,17.57
2019-06-15T22:57:00.242Z,17.59
2019-06-15T22:59:27.912Z,17.59
2019-06-15T23:01:57.530Z,17.61
2019-06-15T23:04:26.605Z,17.62
2019-06-15T23:06:56.534Z,17.62
2019-06-15T23:09:23.446Z,17.61
2019-06-15T23:11:51.134Z,17.59
2019-06-15T23:14:18.782Z,17.57
2019-06-15T23:16:47.449Z,17.57
2019-06-15T23:19:17.024Z,17.59
2019-06-15T23:21:46.326Z,17.59
2019-06-15T23:24:16.432Z,17.58
2019-06-15T23:26:46.049Z,17.58
2019-06-15T23:29:12.751Z,17.60
2019-06-15T23:31:40.841Z,17.62
2019-06-15T23:34:08.617Z,17.64
2019-06-15T23:36:53.150Z,17.68
2019-06-15T23:39:07.860Z,17.68
2019-06-15T23:41:36.253Z,17.68
2019-06-15T23:44:04.053Z,17.70
2019-06-15T23:46:32.124Z,17.69
2019-06-15T23:49:00.199Z,17.66
2019-06-15T23:51:27.961Z,17.57
2019-06-15T23:53:57.197Z,17.53
2019-06-15T23:56:26.011Z,17.53
2019-06-15T23:58:55.986Z,17.49
